sensor_id;sensor_type;location;lat;lon;timestamp;P1;durP1;ratioP1;P2;durP2;ratioP2
10469;SDS011;5282;47.052;15.458;2024-01-07T00:01:14;0.50;;;0.50;;
10469;SDS011;5282;47.052;15.458;2024-01-07T00:03:41;0.47;;;0.47;;
10469;SDS011;5282;47.052;15.458;2024-01-07T00:06:09;0.40;;;0.40;;
10469;SDS011;5282;47.052;15.458;2024-01-07T00:08:37;0.43;;;0.43;;
10469;SDS011;5282;47.052;15.458;2024-01-07T00:11:10;0.40;;;0.40;;
10469;SDS011;5282;47.052;15.458;2024-01-07T00:13:41;0.40;;;0.40;;
10469;SDS011;5282;47.052;15.458;2024-01-07T00:16:08;0.30;;;0.30;;
10469;SDS011;5282;47.052;15.458;2024-01-07T00:18:35;0.60;;;0.60;;
10469;SDS011;5282;47.052;15.458;2024-01-07T00:21:02;1.17;;;0.30;;
10469;SDS011;5282;47.052;15.458;2024-01-07T00:23:31;0.30;;;0.30;;
10469;SDS011;5282;47.052;15.458;2024-01-07T00:25:57;0.67;;;0.30;;
10469;SDS011;5282;47.052;15.458;2024-01-07T00:28:24;0.30;;;0.30;;
10469;SDS011;5282;47.052;15.458;2024-01-07T00:30:51;0.30;;;0.30;;
10469;SDS011;5282;47.052;15.458;2024-01-07T00:33:18;0.40;;;0.40;;
10469;SDS011;5282;47.052;15.458;2024-01-07T00:35:45;0.40;;;0.40;;
10469;SDS011;5282;47.052;15.458;2024-01-07T00:38:11;0.30;;;0.30;;
10469;SDS011;5282;47.052;15.458;2024-01-07T00:40:40;0.37;;;0.37;;
10469;SDS011;5282;47.052;15.458;2024-01-07T00:43:06;0.33;;;0.33;;
10469;SDS011;5282;47.052;15.458;2024-01-07T00:45:33;0.20;;;0.20;;
10469;SDS011;5282;47.052;15.458;2024-01-07T00:48:01;0.37;;;0.37;;
10469;SDS011;5282;47.052;15.458;2024-01-07T00:50:28;0.30;;;0.30;;
10469;SDS011;5282;47.052;15.458;2024-01-07T00:52:55;0.30;;;0.30;;
10469;SDS011;5282;47.052;15.458;2024-01-07T00:55:21;0.20;;;0.20;;
10469;SDS011;5282;47.052;15.458;2024-01-07T00:57:50;0.30;;;0.30;;
10469;SDS011;5282;47.052;15.458;2024-01-07T01:00:18;0.20;;;0.20;;
10469;SDS011;5282;47.052;15.458;2024-01-07T01:02:45;0.33;;;0.33;;
10469;SDS011;5282;47.052;15.458;2024-01-07T01:05:12;0.30;;;0.30;;
10469;SDS011;5282;47.052;15.458;2024-01-07T01:07:39;0.80;;;0.80;;
10469;SDS011;5282;47.052;15.458;2024-01-07T01:10:06;0.30;;;0.30;;
10469;SDS011;5282;47.052;15.458;2024-01-07T01:12:34;0.40;;;0.40;;
10469;SDS011;5282;47.052;15.458;2024-01-07T01:15:02;0.40;;;0.40;;
10469;SDS011;5282;47.052;15.458;2024-01-07T01:17:30;0.40;;;0.40;;
10469;SDS011;5282;47.052;15.458;2024-01-07T01:19:57;0.30;;;0.30;;
10469;SDS011;5282;47.052;15.458;2024-01-07T01:22:24;0.27;;;0.27;;
10469;SDS011;5282;47.052;15.458;2024-01-07T01:24:51;0.20;;;0.20;;
10469;SDS011;5282;47.052;15.458;2024-01-07T01:27:18;0.30;;;0.30;;
10469;SDS011;5282;47.052;15.458;2024-01-07T01:29:45;0.20;;;0.20;;
10469;SDS011;5282;47.052;15.458;2024-01-07T01:32:13;0.30;;;0.30;;
10469;SDS011;5282;47.052;15.458;2024-01-07T01:34:40;0.10;;;0.10;;
10469;SDS011;5282;47.052;15.458;2024-01-07T01:37:08;0.30;;;0.30;;
10469;SDS011;5282;47.052;15.458;2024-01-07T01:39:35;0.30;;;0.30;;
10469;SDS011;5282;47.052;15.458;2024-01-07T01:42:02;0.40;;;0.40;;
10469;SDS011;5282;47.052;15.458;2024-01-07T01:44:29;0.27;;;0.27;;
10469;SDS011;5282;47.052;15.458;2024-01-07T01:46:57;0.30;;;0.30;;
10469;SDS011;5282;47.052;15.458;2024-01-07T01:49:27;0.70;;;0.30;;
10469;SDS011;5282;47.052;15.458;2024-01-07T01:51:54;0.30;;;0.30;;
10469;SDS011;5282;47.052;15.458;2024-01-07T01:54:21;0.30;;;0.30;;
10469;SDS011;5282;47.052;15.458;2024-01-07T01:56:48;0.33;;;0.33;;
10469;SDS011;5282;47.052;15.458;2024-01-07T01:59:16;0.30;;;0.30;;
10469;SDS011;5282;47.052;15.458;2024-01-07T02:01:43;0.30;;;0.30;;
10469;SDS011;5282;47.052;15.458;2024-01-07T02:04:20;0.20;;;0.20;;
10469;SDS011;5282;47.052;15.458;2024-01-07T02:06:51;0.20;;;0.20;;
10469;SDS011;5282;47.052;15.458;2024-01-07T02:09:23;0.20;;;0.20;;
10469;SDS011;5282;47.052;15.458;2024-01-07T02:12:00;0.40;;;0.40;;
10469;SDS011;5282;47.052;15.458;2024-01-07T02:14:28;0.20;;;0.20;;
10469;SDS011;5282;47.052;15.458;2024-01-07T02:16:55;0.20;;;0.20;;
10469;SDS011;5282;47.052;15.458;2024-01-07T02:19:22;0.40;;;0.40;;
10469;SDS011;5282;47.052;15.458;2024-01-07T02:21:49;0.40;;;0.40;;
10469;SDS011;5282;47.052;15.458;2024-01-07T02:24:18;0.30;;;0.30;;
10469;SDS011;5282;47.052;15.458;2024-01-07T02:26:45;0.30;;;0.30;;
10469;SDS011;5282;47.052;15.458;2024-01-07T02:29:12;0.30;;;0.30;;
10469;SDS011;5282;47.052;15.458;2024-01-07T02:31:39;0.30;;;0.30;;
10469;SDS011;5282;47.052;15.458;2024-01-07T02:34:07;0.20;;;0.20;;
10469;SDS011;5282;47.052;15.458;2024-01-07T02:36:35;0.30;;;0.30;;
10469;SDS011;5282;47.052;15.458;2024-01-07T02:39:02;0.23;;;0.23;;
10469;SDS011;5282;47.052;15.458;2024-01-07T02:41:31;0.20;;;0.20;;
10469;SDS011;5282;47.052;15.458;2024-01-07T02:43:58;0.30;;;0.30;;
10469;SDS011;5282;47.052;15.458;2024-01-07T02:46:24;0.20;;;0.20;;
10469;SDS011;5282;47.052;15.458;2024-01-07T02:48:51;0.57;;;0.20;;
10469;SDS011;5282;47.052;15.458;2024-01-07T02:51:18;0.20;;;0.20;;
10469;SDS011;5282;47.052;15.458;2024-01-07T02:53:46;0.30;;;0.30;;
10469;SDS011;5282;47.052;15.458;2024-01-07T02:56:12;0.20;;;0.20;;
10469;SDS011;5282;47.052;15.458;2024-01-07T02:58:41;0.30;;;0.30;;
10469;SDS011;5282;47.052;15.458;2024-01-07T03:01:09;0.30;;;0.30;;
10469;SDS011;5282;47.052;15.458;2024-01-07T03:03:36;0.30;;;0.30;;
10469;SDS011;5282;47.052;15.458;2024-01-07T03:06:03;0.20;;;0.20;;
10469;SDS011;5282;47.052;15.458;2024-01-07T03:08:31;0.37;;;0.37;;
10469;SDS011;5282;47.052;15.458;2024-01-07T03:10:57;0.23;;;0.23;;
10469;SDS011;5282;47.052;15.458;2024-01-07T03:13:25;0.20;;;0.20;;
10469;SDS011;5282;47.052;15.458;2024-01-07T03:15:54;0.30;;;0.30;;
10469;SDS011;5282;47.052;15.458;2024-01-07T03:18:21;0.30;;;0.30;;
10469;SDS011;5282;47.052;15.458;2024-01-07T03:20:50;0.40;;;0.40;;
10469;SDS011;5282;47.052;15.458;2024-01-07T03:23:17;0.30;;;0.30;;
10469;SDS011;5282;47.052;15.458;2024-01-07T03:25:44;0.13;;;0.13;;
10469;SDS011;5282;47.052;15.458;2024-01-07T03:28:11;0.20;;;0.20;;
10469;SDS011;5282;47.052;15.458;2024-01-07T03:30:38;0.30;;;0.30;;
10469;SDS011;5282;47.052;15.458;2024-01-07T03:33:10;0.40;;;0.40;;
10469;SDS011;5282;47.052;15.458;2024-01-07T03:35:37;0.27;;;0.27;;
10469;SDS011;5282;47.052;15.458;2024-01-07T03:38:04;1.27;;;0.40;;
10469;SDS011;5282;47.052;15.458;2024-01-07T03:40:31;0.20;;;0.20;;
10469;SDS011;5282;47.052;15.458;2024-01-07T03:42:58;0.40;;;0.40;;
10469;SDS011;5282;47.052;15.458;2024-01-07T03:45:25;0.27;;;0.27;;
10469;SDS011;5282;47.052;15.458;2024-01-07T03:47:52;0.37;;;0.37;;
10469;SDS011;5282;47.052;15.458;2024-01-07T03:50:20;0.30;;;0.30;;
10469;SDS011;5282;47.052;15.458;2024-01-07T03:52:47;0.30;;;0.30;;
10469;SDS011;5282;47.052;15.458;2024-01-07T03:55:14;0.30;;;0.30;;
10469;SDS011;5282;47.052;15.458;2024-01-07T03:57:42;0.30;;;0.30;;
10469;SDS011;5282;47.052;15.458;2024-01-07T04:00:10;0.30;;;0.30;;
10469;SDS011;5282;47.052;15.458;2024-01-07T04:02:37;0.20;;;0.20;;
10469;SDS011;5282;47.052;15.458;2024-01-07T04:05:05;0.30;;;0.30;;
10469;SDS011;5282;47.052;15.458;2024-01-07T04:07:33;0.40;;;0.40;;
10469;SDS011;5282;47.052;15.458;2024-01-07T04:10:00;0.40;;;0.40;;
10469;SDS011;5282;47.052;15.458;2024-01-07T04:12:28;0.40;;;0.40;;
10469;SDS011;5282;47.052;15.458;2024-01-07T04:14:54;0.40;;;0.40;;
10469;SDS011;5282;47.052;15.458;2024-01-07T04:17:21;0.23;;;0.23;;
10469;SDS011;5282;47.052;15.458;2024-01-07T04:19:48;0.30;;;0.30;;
10469;SDS011;5282;47.052;15.458;2024-01-07T04:22:15;0.30;;;0.30;;
10469;SDS011;5282;47.052;15.458;2024-01-07T04:24:43;0.30;;;0.30;;
10469;SDS011;5282;47.052;15.458;2024-01-07T04:27:10;0.37;;;0.37;;
10469;SDS011;5282;47.052;15.458;2024-01-07T04:29:38;0.20;;;0.20;;
10469;SDS011;5282;47.052;15.458;2024-01-07T04:32:05;0.30;;;0.30;;
10469;SDS011;5282;47.052;15.458;2024-01-07T04:34:32;0.23;;;0.23;;
10469;SDS011;5282;47.052;15.458;2024-01-07T04:36:58;0.40;;;0.40;;
10469;SDS011;5282;47.052;15.458;2024-01-07T04:39:25;0.20;;;0.20;;
10469;SDS011;5282;47.052;15.458;2024-01-07T04:41:54;0.20;;;0.20;;
10469;SDS011;5282;47.052;15.458;2024-01-07T04:44:21;0.40;;;0.40;;
10469;SDS011;5282;47.052;15.458;2024-01-07T04:46:48;0.23;;;0.23;;
10469;SDS011;5282;47.052;15.458;2024-01-07T04:49:14;0.20;;;0.20;;
10469;SDS011;5282;47.052;15.458;2024-01-07T04:51:41;0.20;;;0.20;;
10469;SDS011;5282;47.052;15.458;2024-01-07T04:54:08;0.40;;;0.30;;
10469;SDS011;5282;47.052;15.458;2024-01-07T04:56:35;0.37;;;0.37;;
10469;SDS011;5282;47.052;15.458;2024-01-07T04:59:03;0.30;;;0.30;;
10469;SDS011;5282;47.052;15.458;2024-01-07T05:01:32;0.30;;;0.30;;
10469;SDS011;5282;47.052;15.458;2024-01-07T05:03:59;0.30;;;0.30;;
10469;SDS011;5282;47.052;15.458;2024-01-07T05:06:25;0.33;;;0.33;;
10469;SDS011;5282;47.052;15.458;2024-01-07T05:08:52;0.23;;;0.23;;
10469;SDS011;5282;47.052;15.458;2024-01-07T05:11:19;0.40;;;0.40;;
10469;SDS011;5282;47.052;15.458;2024-01-07T05:13:46;0.20;;;0.20;;
10469;SDS011;5282;47.052;15.458;2024-01-07T05:16:19;0.30;;;0.20;;
10469;SDS011;5282;47.052;15.458;2024-01-07T05:18:46;0.30;;;0.30;;
10469;SDS011;5282;47.052;15.458;2024-01-07T05:21:13;0.30;;;0.30;;
10469;SDS011;5282;47.052;15.458;2024-01-07T05:23:40;0.47;;;0.47;;
10469;SDS011;5282;47.052;15.458;2024-01-07T05:26:07;0.27;;;0.27;;
10469;SDS011;5282;47.052;15.458;2024-01-07T05:28:34;0.50;;;0.50;;
10469;SDS011;5282;47.052;15.458;2024-01-07T05:31:03;0.33;;;0.33;;
10469;SDS011;5282;47.052;15.458;2024-01-07T05:33:31;0.40;;;0.40;;
10469;SDS011;5282;47.052;15.458;2024-01-07T05:35:58;0.30;;;0.30;;
10469;SDS011;5282;47.052;15.458;2024-01-07T05:38:25;0.20;;;0.20;;
10469;SDS011;5282;47.052;15.458;2024-01-07T05:40:52;0.30;;;0.30;;
10469;SDS011;5282;47.052;15.458;2024-01-07T05:43:18;0.20;;;0.20;;
10469;SDS011;5282;47.052;15.458;2024-01-07T05:45:45;0.20;;;0.20;;
10469;SDS011;5282;47.052;15.458;2024-01-07T05:48:12;0.20;;;0.20;;
10469;SDS011;5282;47.052;15.458;2024-01-07T05:50:40;0.30;;;0.30;;
10469;SDS011;5282;47.052;15.458;2024-01-07T05:53:07;0.20;;;0.20;;
10469;SDS011;5282;47.052;15.458;2024-01-07T05:55:34;0.40;;;0.40;;
10469;SDS011;5282;47.052;15.458;2024-01-07T05:58:01;0.30;;;0.30;;
10469;SDS011;5282;47.052;15.458;2024-01-07T06:00:28;0.30;;;0.30;;
10469;SDS011;5282;47.052;15.458;2024-01-07T06:02:55;0.20;;;0.20;;
10469;SDS011;5282;47.052;15.458;2024-01-07T06:05:21;0.33;;;0.33;;
10469;SDS011;5282;47.052;15.458;2024-01-07T06:07:50;0.40;;;0.40;;
10469;SDS011;5282;47.052;15.458;2024-01-07T06:10:16;0.87;;;0.40;;
10469;SDS011;5282;47.052;15.458;2024-01-07T06:12:44;0.30;;;0.30;;
10469;SDS011;5282;47.052;15.458;2024-01-07T06:15:11;0.30;;;0.30;;
10469;SDS011;5282;47.052;15.458;2024-01-07T06:17:38;0.50;;;0.20;;
10469;SDS011;5282;47.052;15.458;2024-01-07T06:20:05;0.20;;;0.20;;
10469;SDS011;5282;47.052;15.458;2024-01-07T06:22:36;0.40;;;0.40;;
10469;SDS011;5282;47.052;15.458;2024-01-07T06:25:04;0.30;;;0.30;;
10469;SDS011;5282;47.052;15.458;2024-01-07T06:27:31;0.30;;;0.30;;
10469;SDS011;5282;47.052;15.458;2024-01-07T06:30:01;0.30;;;0.30;;
10469;SDS011;5282;47.052;15.458;2024-01-07T06:32:29;0.17;;;0.17;;
10469;SDS011;5282;47.052;15.458;2024-01-07T06:34:57;0.40;;;0.40;;
10469;SDS011;5282;47.052;15.458;2024-01-07T06:37:24;0.40;;;0.40;;
10469;SDS011;5282;47.052;15.458;2024-01-07T06:39:54;0.30;;;0.30;;
10469;SDS011;5282;47.052;15.458;2024-01-07T06:42:22;0.20;;;0.20;;
10469;SDS011;5282;47.052;15.458;2024-01-07T06:44:49;0.20;;;0.20;;
10469;SDS011;5282;47.052;15.458;2024-01-07T06:47:16;0.30;;;0.30;;
10469;SDS011;5282;47.052;15.458;2024-01-07T06:49:43;0.20;;;0.20;;
10469;SDS011;5282;47.052;15.458;2024-01-07T06:52:10;0.23;;;0.23;;
10469;SDS011;5282;47.052;15.458;2024-01-07T06:54:37;0.20;;;0.20;;
10469;SDS011;5282;47.052;15.458;2024-01-07T06:57:04;0.33;;;0.33;;
10469;SDS011;5282;47.052;15.458;2024-01-07T06:59:32;0.17;;;0.17;;
10469;SDS011;5282;47.052;15.458;2024-01-07T07:02:00;0.50;;;0.50;;
10469;SDS011;5282;47.052;15.458;2024-01-07T07:04:26;0.20;;;0.20;;
10469;SDS011;5282;47.052;15.458;2024-01-07T07:06:53;0.20;;;0.20;;
10469;SDS011;5282;47.052;15.458;2024-01-07T07:09:22;0.20;;;0.20;;
10469;SDS011;5282;47.052;15.458;2024-01-07T07:11:49;0.20;;;0.20;;
10469;SDS011;5282;47.052;15.458;2024-01-07T07:14:16;0.40;;;0.40;;
10469;SDS011;5282;47.052;15.458;2024-01-07T07:16:44;0.67;;;0.47;;
10469;SDS011;5282;47.052;15.458;2024-01-07T07:19:11;0.20;;;0.20;;
10469;SDS011;5282;47.052;15.458;2024-01-07T07:21:40;0.27;;;0.27;;
10469;SDS011;5282;47.052;15.458;2024-01-07T07:24:07;0.40;;;0.40;;
10469;SDS011;5282;47.052;15.458;2024-01-07T07:26:34;0.40;;;0.40;;
10469;SDS011;5282;47.052;15.458;2024-01-07T07:29:06;0.40;;;0.40;;
10469;SDS011;5282;47.052;15.458;2024-01-07T07:31:34;0.30;;;0.30;;
10469;SDS011;5282;47.052;15.458;2024-01-07T07:34:03;0.40;;;0.40;;
10469;SDS011;5282;47.052;15.458;2024-01-07T07:36:31;0.20;;;0.20;;
10469;SDS011;5282;47.052;15.458;2024-01-07T07:38:58;0.40;;;0.40;;
10469;SDS011;5282;47.052;15.458;2024-01-07T07:41:25;0.30;;;0.30;;
10469;SDS011;5282;47.052;15.458;2024-01-07T07:43:52;0.30;;;0.30;;
10469;SDS011;5282;47.052;15.458;2024-01-07T07:46:19;0.23;;;0.23;;
10469;SDS011;5282;47.052;15.458;2024-01-07T07:48:46;0.50;;;0.50;;
10469;SDS011;5282;47.052;15.458;2024-01-07T07:51:15;0.43;;;0.43;;
10469;SDS011;5282;47.052;15.458;2024-01-07T07:53:41;0.40;;;0.40;;
10469;SDS011;5282;47.052;15.458;2024-01-07T07:56:08;0.40;;;0.40;;
10469;SDS011;5282;47.052;15.458;2024-01-07T07:58:35;0.37;;;0.37;;
10469;SDS011;5282;47.052;15.458;2024-01-07T08:01:03;0.83;;;0.50;;
10469;SDS011;5282;47.052;15.458;2024-01-07T08:03:30;0.70;;;0.70;;
10469;SDS011;5282;47.052;15.458;2024-01-07T08:05:57;0.30;;;0.30;;
10469;SDS011;5282;47.052;15.458;2024-01-07T08:08:25;0.40;;;0.40;;
10469;SDS011;5282;47.052;15.458;2024-01-07T08:10:52;0.30;;;0.30;;
10469;SDS011;5282;47.052;15.458;2024-01-07T08:13:19;0.50;;;0.50;;
10469;SDS011;5282;47.052;15.458;2024-01-07T08:15:46;0.40;;;0.40;;
10469;SDS011;5282;47.052;15.458;2024-01-07T08:18:13;0.43;;;0.43;;
10469;SDS011;5282;47.052;15.458;2024-01-07T08:20:40;1.10;;;1.00;;
10469;SDS011;5282;47.052;15.458;2024-01-07T08:23:07;0.87;;;0.87;;
10469;SDS011;5282;47.052;15.458;2024-01-07T08:25:35;1.07;;;1.00;;
10469;SDS011;5282;47.052;15.458;2024-01-07T08:28:02;0.57;;;0.57;;
10469;SDS011;5282;47.052;15.458;2024-01-07T08:30:29;0.40;;;0.40;;
10469;SDS011;5282;47.052;15.458;2024-01-07T08:32:56;0.60;;;0.60;;
10469;SDS011;5282;47.052;15.458;2024-01-07T08:35:23;0.40;;;0.40;;
10469;SDS011;5282;47.052;15.458;2024-01-07T08:37:50;0.53;;;0.53;;
10469;SDS011;5282;47.052;15.458;2024-01-07T08:40:17;0.47;;;0.47;;
10469;SDS011;5282;47.052;15.458;2024-01-07T08:42:46;0.40;;;0.40;;
10469;SDS011;5282;47.052;15.458;2024-01-07T08:45:12;0.40;;;0.40;;
10469;SDS011;5282;47.052;15.458;2024-01-07T08:47:39;0.97;;;0.97;;
10469;SDS011;5282;47.052;15.458;2024-01-07T08:50:06;0.43;;;0.40;;
10469;SDS011;5282;47.052;15.458;2024-01-07T08:52:34;0.63;;;0.63;;
10469;SDS011;5282;47.052;15.458;2024-01-07T08:55:02;1.00;;;1.00;;
10469;SDS011;5282;47.052;15.458;2024-01-07T08:57:31;1.93;;;1.00;;
10469;SDS011;5282;47.052;15.458;2024-01-07T08:59:59;0.70;;;0.70;;
10469;SDS011;5282;47.052;15.458;2024-01-07T09:02:26;0.60;;;0.60;;
10469;SDS011;5282;47.052;15.458;2024-01-07T09:04:53;0.53;;;0.53;;
10469;SDS011;5282;47.052;15.458;2024-01-07T09:07:20;0.60;;;0.60;;
10469;SDS011;5282;47.052;15.458;2024-01-07T09:09:47;0.50;;;0.50;;
10469;SDS011;5282;47.052;15.458;2024-01-07T09:12:14;0.50;;;0.50;;
10469;SDS011;5282;47.052;15.458;2024-01-07T09:14:41;0.50;;;0.50;;
10469;SDS011;5282;47.052;15.458;2024-01-07T09:17:09;0.57;;;0.57;;
10469;SDS011;5282;47.052;15.458;2024-01-07T09:19:37;0.40;;;0.40;;
10469;SDS011;5282;47.052;15.458;2024-01-07T09:22:04;1.70;;;0.30;;
10469;SDS011;5282;47.052;15.458;2024-01-07T09:24:31;0.30;;;0.30;;
10469;SDS011;5282;47.052;15.458;2024-01-07T09:26:58;0.40;;;0.40;;
10469;SDS011;5282;47.052;15.458;2024-01-07T09:29:25;0.40;;;0.40;;
10469;SDS011;5282;47.052;15.458;2024-01-07T09:31:52;0.30;;;0.30;;
10469;SDS011;5282;47.052;15.458;2024-01-07T09:34:20;0.50;;;0.50;;
10469;SDS011;5282;47.052;15.458;2024-01-07T09:36:47;0.40;;;0.40;;
10469;SDS011;5282;47.052;15.458;2024-01-07T09:39:14;0.83;;;0.40;;
10469;SDS011;5282;47.052;15.458;2024-01-07T09:41:41;0.40;;;0.40;;
10469;SDS011;5282;47.052;15.458;2024-01-07T09:44:08;0.37;;;0.37;;
10469;SDS011;5282;47.052;15.458;2024-01-07T09:46:36;0.40;;;0.40;;
10469;SDS011;5282;47.052;15.458;2024-01-07T09:49:05;1.63;;;0.50;;
10469;SDS011;5282;47.052;15.458;2024-01-07T09:51:34;0.40;;;0.40;;
10469;SDS011;5282;47.052;15.458;2024-01-07T09:54:03;0.40;;;0.40;;
10469;SDS011;5282;47.052;15.458;2024-01-07T09:56:38;0.43;;;0.43;;
10469;SDS011;5282;47.052;15.458;2024-01-07T09:59:07;0.40;;;0.40;;
10469;SDS011;5282;47.052;15.458;2024-01-07T10:01:34;0.70;;;0.70;;
10469;SDS011;5282;47.052;15.458;2024-01-07T10:04:02;0.60;;;0.60;;
10469;SDS011;5282;47.052;15.458;2024-01-07T10:06:29;0.90;;;0.90;;
10469;SDS011;5282;47.052;15.458;2024-01-07T10:08:59;0.77;;;0.77;;
10469;SDS011;5282;47.052;15.458;2024-01-07T10:11:26;0.90;;;0.90;;
10469;SDS011;5282;47.052;15.458;2024-01-07T10:13:53;0.90;;;0.90;;
10469;SDS011;5282;47.052;15.458;2024-01-07T10:16:20;1.00;;;1.00;;
10469;SDS011;5282;47.052;15.458;2024-01-07T10:18:47;2.10;;;2.00;;
10469;SDS011;5282;47.052;15.458;2024-01-07T10:21:14;1.97;;;1.87;;
10469;SDS011;5282;47.052;15.458;2024-01-07T10:23:41;1.20;;;1.20;;
10469;SDS011;5282;47.052;15.458;2024-01-07T10:26:10;2.70;;;2.47;;
10469;SDS011;5282;47.052;15.458;2024-01-07T10:28:36;1.97;;;1.87;;
10469;SDS011;5282;47.052;15.458;2024-01-07T10:31:05;1.70;;;1.60;;
10469;SDS011;5282;47.052;15.458;2024-01-07T10:33:32;2.00;;;1.90;;
10469;SDS011;5282;47.052;15.458;2024-01-07T10:36:01;1.23;;;1.23;;
10469;SDS011;5282;47.052;15.458;2024-01-07T10:38:30;1.60;;;1.50;;
10469;SDS011;5282;47.052;15.458;2024-01-07T10:41:01;1.67;;;1.50;;
10469;SDS011;5282;47.052;15.458;2024-01-07T10:43:32;1.37;;;1.37;;
10469;SDS011;5282;47.052;15.458;2024-01-07T10:46:02;1.47;;;1.37;;
10469;SDS011;5282;47.052;15.458;2024-01-07T10:48:31;1.87;;;1.83;;
10469;SDS011;5282;47.052;15.458;2024-01-07T10:51:04;1.90;;;1.80;;
10469;SDS011;5282;47.052;15.458;2024-01-07T10:53:33;2.20;;;2.10;;
10469;SDS011;5282;47.052;15.458;2024-01-07T10:56:02;1.43;;;1.33;;
10469;SDS011;5282;47.052;15.458;2024-01-07T10:58:30;1.60;;;1.60;;
10469;SDS011;5282;47.052;15.458;2024-01-07T11:01:02;2.00;;;1.90;;
10469;SDS011;5282;47.052;15.458;2024-01-07T11:03:34;2.13;;;2.00;;
10469;SDS011;5282;47.052;15.458;2024-01-07T11:06:08;1.83;;;1.73;;
10469;SDS011;5282;47.052;15.458;2024-01-07T11:08:43;1.97;;;1.87;;
10469;SDS011;5282;47.052;15.458;2024-01-07T11:11:20;2.10;;;2.00;;
10469;SDS011;5282;47.052;15.458;2024-01-07T11:13:53;2.53;;;2.43;;
10469;SDS011;5282;47.052;15.458;2024-01-07T11:19:09;2.43;;;2.20;;
10469;SDS011;5282;47.052;15.458;2024-01-07T11:21:39;1.70;;;1.60;;
10469;SDS011;5282;47.052;15.458;2024-01-07T11:24:06;1.87;;;1.77;;
10469;SDS011;5282;47.052;15.458;2024-01-07T11:26:34;2.40;;;2.30;;
10469;SDS011;5282;47.052;15.458;2024-01-07T11:29:02;2.70;;;2.50;;
10469;SDS011;5282;47.052;15.458;2024-01-07T11:34:38;3.10;;;2.90;;
10469;SDS011;5282;47.052;15.458;2024-01-07T11:37:07;3.00;;;2.70;;
10469;SDS011;5282;47.052;15.458;2024-01-07T11:39:36;2.73;;;2.57;;
10469;SDS011;5282;47.052;15.458;2024-01-07T11:42:03;2.00;;;1.90;;
10469;SDS011;5282;47.052;15.458;2024-01-07T11:44:34;1.20;;;1.20;;
10469;SDS011;5282;47.052;15.458;2024-01-07T11:47:02;1.30;;;1.23;;
10469;SDS011;5282;47.052;15.458;2024-01-07T11:49:29;1.40;;;1.40;;
10469;SDS011;5282;47.052;15.458;2024-01-07T11:51:57;1.87;;;1.60;;
10469;SDS011;5282;47.052;15.458;2024-01-07T11:54:23;1.90;;;1.80;;
10469;SDS011;5282;47.052;15.458;2024-01-07T11:56:51;1.50;;;1.50;;
10469;SDS011;5282;47.052;15.458;2024-01-07T11:59:18;1.40;;;1.40;;
10469;SDS011;5282;47.052;15.458;2024-01-07T12:01:46;1.70;;;1.60;;
10469;SDS011;5282;47.052;15.458;2024-01-07T12:04:13;2.37;;;2.17;;
10469;SDS011;5282;47.052;15.458;2024-01-07T12:06:40;1.63;;;1.53;;
10469;SDS011;5282;47.052;15.458;2024-01-07T12:09:07;1.40;;;1.40;;
10469;SDS011;5282;47.052;15.458;2024-01-07T12:11:34;1.90;;;1.67;;
10469;SDS011;5282;47.052;15.458;2024-01-07T12:14:01;1.87;;;1.60;;
10469;SDS011;5282;47.052;15.458;2024-01-07T12:16:29;1.47;;;1.47;;
10469;SDS011;5282;47.052;15.458;2024-01-07T12:18:57;1.37;;;1.37;;
10469;SDS011;5282;47.052;15.458;2024-01-07T12:21:24;1.00;;;1.00;;
10469;SDS011;5282;47.052;15.458;2024-01-07T12:23:53;1.00;;;1.00;;
10469;SDS011;5282;47.052;15.458;2024-01-07T12:26:25;1.00;;;1.00;;
10469;SDS011;5282;47.052;15.458;2024-01-07T12:28:53;1.00;;;1.00;;
10469;SDS011;5282;47.052;15.458;2024-01-07T12:31:20;0.80;;;0.80;;
10469;SDS011;5282;47.052;15.458;2024-01-07T12:33:46;0.73;;;0.73;;
10469;SDS011;5282;47.052;15.458;2024-01-07T12:36:15;2.13;;;1.93;;
10469;SDS011;5282;47.052;15.458;2024-01-07T12:38:42;1.00;;;1.00;;
10469;SDS011;5282;47.052;15.458;2024-01-07T12:41:09;0.60;;;0.60;;
10469;SDS011;5282;47.052;15.458;2024-01-07T12:43:36;0.70;;;0.70;;
10469;SDS011;5282;47.052;15.458;2024-01-07T12:46:03;0.60;;;0.60;;
10469;SDS011;5282;47.052;15.458;2024-01-07T12:48:31;0.60;;;0.60;;
10469;SDS011;5282;47.052;15.458;2024-01-07T12:51:00;0.80;;;0.80;;
10469;SDS011;5282;47.052;15.458;2024-01-07T12:53:29;0.83;;;0.83;;
10469;SDS011;5282;47.052;15.458;2024-01-07T12:55:56;0.70;;;0.70;;
10469;SDS011;5282;47.052;15.458;2024-01-07T12:58:23;0.90;;;0.90;;
10469;SDS011;5282;47.052;15.458;2024-01-07T13:00:50;0.70;;;0.70;;
10469;SDS011;5282;47.052;15.458;2024-01-07T13:03:17;0.73;;;0.73;;
10469;SDS011;5282;47.052;15.458;2024-01-07T13:05:44;1.00;;;1.00;;
10469;SDS011;5282;47.052;15.458;2024-01-07T13:08:14;1.27;;;0.80;;
10469;SDS011;5282;47.052;15.458;2024-01-07T13:10:42;0.70;;;0.70;;
10469;SDS011;5282;47.052;15.458;2024-01-07T13:13:09;0.70;;;0.70;;
10469;SDS011;5282;47.052;15.458;2024-01-07T13:15:38;0.70;;;0.70;;
10469;SDS011;5282;47.052;15.458;2024-01-07T13:18:06;0.80;;;0.80;;
10469;SDS011;5282;47.052;15.458;2024-01-07T13:20:33;0.73;;;0.73;;
10469;SDS011;5282;47.052;15.458;2024-01-07T13:23:03;2.20;;;0.90;;
10469;SDS011;5282;47.052;15.458;2024-01-07T13:25:30;0.93;;;0.93;;
10469;SDS011;5282;47.052;15.458;2024-01-07T13:27:58;0.80;;;0.80;;
10469;SDS011;5282;47.052;15.458;2024-01-07T13:30:25;0.70;;;0.70;;
10469;SDS011;5282;47.052;15.458;2024-01-07T13:32:52;0.70;;;0.70;;
10469;SDS011;5282;47.052;15.458;2024-01-07T13:35:22;0.70;;;0.70;;
10469;SDS011;5282;47.052;15.458;2024-01-07T13:37:50;0.70;;;0.70;;
10469;SDS011;5282;47.052;15.458;2024-01-07T13:40:17;0.70;;;0.70;;
10469;SDS011;5282;47.052;15.458;2024-01-07T13:42:45;0.60;;;0.60;;
10469;SDS011;5282;47.052;15.458;2024-01-07T13:45:17;0.73;;;0.73;;
10469;SDS011;5282;47.052;15.458;2024-01-07T13:47:46;0.60;;;0.60;;
10469;SDS011;5282;47.052;15.458;2024-01-07T13:50:13;1.27;;;0.77;;
10469;SDS011;5282;47.052;15.458;2024-01-07T13:52:40;0.80;;;0.80;;
10469;SDS011;5282;47.052;15.458;2024-01-07T13:55:07;1.43;;;0.80;;
10469;SDS011;5282;47.052;15.458;2024-01-07T13:57:35;1.57;;;0.90;;
10469;SDS011;5282;47.052;15.458;2024-01-07T14:00:02;0.80;;;0.80;;
10469;SDS011;5282;47.052;15.458;2024-01-07T14:02:36;0.63;;;0.63;;
10469;SDS011;5282;47.052;15.458;2024-01-07T14:05:04;0.70;;;0.70;;
10469;SDS011;5282;47.052;15.458;2024-01-07T14:07:34;0.80;;;0.70;;
10469;SDS011;5282;47.052;15.458;2024-01-07T14:10:00;1.20;;;0.80;;
10469;SDS011;5282;47.052;15.458;2024-01-07T14:12:28;0.90;;;0.90;;
10469;SDS011;5282;47.052;15.458;2024-01-07T14:14:56;1.03;;;1.03;;
10469;SDS011;5282;47.052;15.458;2024-01-07T14:17:24;0.70;;;0.70;;
10469;SDS011;5282;47.052;15.458;2024-01-07T14:19:52;1.30;;;0.63;;
10469;SDS011;5282;47.052;15.458;2024-01-07T14:22:19;0.60;;;0.60;;
10469;SDS011;5282;47.052;15.458;2024-01-07T14:24:46;0.70;;;0.70;;
10469;SDS011;5282;47.052;15.458;2024-01-07T14:27:13;0.77;;;0.77;;
10469;SDS011;5282;47.052;15.458;2024-01-07T14:29:41;0.60;;;0.60;;
10469;SDS011;5282;47.052;15.458;2024-01-07T14:32:08;0.70;;;0.70;;
10469;SDS011;5282;47.052;15.458;2024-01-07T14:34:37;0.80;;;0.80;;
10469;SDS011;5282;47.052;15.458;2024-01-07T14:37:05;0.70;;;0.70;;
10469;SDS011;5282;47.052;15.458;2024-01-07T14:39:32;2.40;;;0.93;;
10469;SDS011;5282;47.052;15.458;2024-01-07T14:41:59;1.17;;;1.07;;
10469;SDS011;5282;47.052;15.458;2024-01-07T14:44:26;1.10;;;1.10;;
10469;SDS011;5282;47.052;15.458;2024-01-07T14:46:53;0.87;;;0.87;;
10469;SDS011;5282;47.052;15.458;2024-01-07T14:49:20;0.60;;;0.60;;
10469;SDS011;5282;47.052;15.458;2024-01-07T14:51:46;0.67;;;0.67;;
10469;SDS011;5282;47.052;15.458;2024-01-07T14:54:15;1.70;;;0.83;;
10469;SDS011;5282;47.052;15.458;2024-01-07T14:56:41;0.53;;;0.53;;